Flight Track Log - Related Links

Times and Time Zones

All times are in EDT time to prevent confusion due to time zone crossing. See the SWA1729 flight status page for this flight to view local times or setup timezone preferences in your user account.

Time Position Orientation Groundspeed Altitude Reporting Facility
EDT Latitude Longitude Course Direction KTS MPH feet Rate Location/Type
Sat 09:42:58 AM 40.7758 -111.9983 175° South 149 171 5,100  Level Salt Lake Center
Sat 09:44:16 AM 40.7031 -111.9892 175° South 229 264 7,400 2,638 Climbing Salt Lake Center
Sat 09:45:19 AM 40.6225 -111.9761 173° South 268 308 11,300 3,194 Climbing Salt Lake Center
Sat 09:46:20 AM 40.5308 -111.9600 172° South 336 387 14,000 2,803 Climbing Salt Lake Center
Sat 09:47:21 AM 40.4336 -111.9492 175° South 354 407 17,000 2,975 Climbing Salt Lake Center
Sat 09:48:21 AM 40.3297 -111.9428 177° South 375 432 20,000 2,678 Climbing Salt Lake Center
Sat 09:49:22 AM 40.2208 -111.9447 181° South 390 449 22,400 2,410 Climbing Salt Lake Center
Sat 09:50:23 AM 40.1108 -111.9636 187° South 400 460 24,900 2,213 Climbing Salt Lake Center
Sat 09:51:24 AM 39.9961 -111.9797 186° South 414 476 26,900 2,164 Climbing Salt Lake Center
Sat 09:52:25 AM 39.8756 -111.9972 186° South 437 503 29,300 2,016 Climbing Salt Lake Center
Sat 09:53:26 AM 39.7564 -112.0150 187° South 430 495 31,000 1,131 Climbing Salt Lake Center
Sat 09:54:27 AM 39.6364 -112.0339 187° South 433 498 31,600 492 Climbing Salt Lake Center
Sat 09:55:28 AM 39.5144 -112.0517 186° South 439 505 32,000 197 Climbing Salt Lake Center
Sat 09:56:29 AM 39.3933 -112.0689 186° South 437 503 32,000  Level Salt Lake Center
Sat 09:57:30 AM 39.2728 -112.0861 186° South 437 503 32,000  Level Salt Lake Center
Sat 09:58:31 AM 39.1431 -112.1050 186° South 435 501 32,000  Level Salt Lake Center
Sat 09:59:32 AM 39.0203 -112.1233 187° South 442 509 32,000  Level Salt Lake Center
Sat 10:00:33 AM 38.9219 -112.2039 213° Southwest 419 482 32,000  Level Salt Lake Center
Sat 10:01:34 AM 38.8242 -112.2844 213° Southwest 418 481 32,000  Level Salt Lake Center
Sat 10:02:35 AM 38.7058 -112.3817 213° Southwest 421 484 32,000  Level Salt Lake Center
Sat 10:03:36 AM 38.6078 -112.4633 213° Southwest 423 487 32,000  Level Salt Lake Center
Sat 10:04:38 AM 38.5089 -112.5456 213° Southwest 424 488 32,000  Level Salt Lake Center
Sat 10:05:39 AM 38.4103 -112.6264 213° Southwest 423 487 32,000  Level Salt Lake Center
Sat 10:06:40 AM 38.3119 -112.7072 213° Southwest 423 487 32,000  Level Salt Lake Center
Sat 10:07:41 AM 38.2128 -112.7861 212° Southwest 422 486 32,000  Level Salt Lake Center
Sat 10:08:42 AM 38.1153 -112.8669 213° Southwest 420 483 32,000  Level Salt Lake Center
Sat 10:09:43 AM 38.0164 -112.9472 213° Southwest 422 486 32,000  Level Salt Lake Center
Sat 10:10:44 AM 37.9175 -113.0272 213° Southwest 424 488 32,000  Level Salt Lake Center
Sat 10:11:45 AM 37.7983 -113.1222 212° Southwest 426 490 32,000  Level Salt Lake Center
Sat 10:12:46 AM 37.6989 -113.2019 212° Southwest 428 493 32,000  Level Salt Lake Center
Sat 10:13:47 AM 37.6011 -113.2803 212° Southwest 423 487 32,000  Level Salt Lake Center
Sat 10:14:49 AM 37.5025 -113.3581 212° Southwest 421 484 32,000  Level Salt Lake Center
Sat 10:15:50 AM 37.4028 -113.4367 212° Southwest 425 489 32,000  Level Salt Lake Center
Sat 10:16:31 AM 37.3206 -113.5003 212° Southwest 431 496 32,000  Level Los Angeles Center
Sat 10:17:33 AM 37.2192 -113.5803 212° Southwest 433 498 32,000 -878 Level Los Angeles Center
Sat 10:18:34 AM 37.1194 -113.6589 212° Southwest 426 490 30,200 -1,820 Descending Los Angeles Center
Sat 10:19:35 AM 37.0231 -113.7350 212° Southwest 414 476 28,300 -1,902 Descending Los Angeles Center
Sat 10:20:37 AM 36.9292 -113.8094 212° Southwest 403 464 26,300 -1,902 Descending Los Angeles Center
Sat 10:21:38 AM 36.8361 -113.8800 211° Southwest 394 453 24,400 -1,854 Descending Los Angeles Center
Sat 10:22:40 AM 36.7458 -113.9508 212° Southwest 386 444 22,500 -1,805 Descending Los Angeles Center
Sat 10:23:41 AM 36.6592 -114.0178 212° Southwest 371 427 20,700 -1,918 Descending Los Angeles Center
Sat 10:24:42 AM 36.5650 -114.1044 216° Southwest 352 405 18,600 -1,951 Descending Los Angeles Center
Sat 10:25:44 AM 36.5219 -114.2033 242° Southwest 327 376 16,700 -1,756 Descending Los Angeles Center
Sat 10:26:45 AM 36.4800 -114.2939 240° Southwest 318 366 15,000 -1,704 Descending Los Angeles Center
Sat 10:27:05 AM 36.4650 -114.3325 244° Southwest 310 357 14,400 -1,548 Descending Los Angeles Center
Sat 10:27:47 AM 36.4375 -114.3861 237° Southwest 310 357 13,400 -1,672 Descending Los Angeles Center
Sat 10:28:06 AM 36.4228 -114.4247 245° Southwest 304 350 12,700 -1,377 Descending Los Angeles Center
Sat 10:28:48 AM 36.3958 -114.4750 236° Southwest 299 344 12,000 -787 Descending Los Angeles Center
Sat 10:29:07 AM 36.3658 -114.4897 202° Southwest 299 344 11,900 -774 Descending Los Angeles Center
Sat 10:29:50 AM 36.3142 -114.4878 178° South 292 336 11,200 -1,300 Descending Los Angeles Center
Sat 10:30:07 AM 36.2778 -114.4928 186° South 294 338 10,600 -1,180 Descending Los Angeles Center
Sat 10:30:51 AM 36.2322 -114.4906 178° South 292 336 10,000 -1,082 Descending Los Angeles Center
Sat 10:31:08 AM 36.1978 -114.4933 184° South 289 333 9,500 -1,065 Descending Los Angeles Center
Sat 10:31:53 AM 36.1533 -114.4911 178° South 283 326 8,900 -1,082 Descending Los Angeles Center
Sat 10:32:09 AM 36.1225 -114.4947 185° South 280 322 8,400 -885 Descending Los Angeles Center
Sat 10:32:54 AM 36.0900 -114.5472 233° Southwest 266 306 8,000 -393 Descending Los Angeles Center
Sat 10:33:10 AM 36.0881 -114.5731 265° West 266 306 8,000  Level Los Angeles Center
Sat 10:33:56 AM 36.0833 -114.6342 265° West 258 297 8,000  Level Los Angeles Center
Sat 10:34:57 AM 36.0747 -114.7108 262° West 237 273 8,000 -74 Level Los Angeles Center
Sat 10:35:17 AM 36.0736 -114.7431 268° West 227 261 7,900 -762 Descending Los Angeles Center
Sat 10:36:00 AM 36.0747 -114.7961 271° West 230 265 7,200 -932 Descending Los Angeles Center
Sat 10:37:00 AM 36.0739 -114.8708 269° West 218 251 6,300 -744 Descending Los Angeles Center
Sat 10:38:01 AM 36.0733 -114.9375 269° West 181 208 5,700 -942 Descending Los Angeles Center
Sat 10:39:01 AM 36.0747 -114.9931 272° West 169 194 4,400 -1,240 Descending Los Angeles Center
Sat 10:40:02 AM 36.0733 -115.0467 268° West 159 183 3,200 -934 Descending Los Angeles Center
Sat 10:41:03 AM 36.0736 -115.0972 270° West 134 154 2,500 -571 Descending Los Angeles Center
Sat 10:42:08 AM 36.0733 -115.1344 269° West 143 165 2,000 -462 Descending Los Angeles Center
Sat 10:44:00 AM 36.0667 -115.1500 219° Southwest  Level FlightAware Approximate

Login

Don't have an account? Register now (free) for customized features, flight alerts, and more!